createdAt,value
2018-03-20T00:02:20.329Z,60.29
2018-03-20T00:04:47.893Z,60.30
2018-03-20T00:07:15.521Z,60.06
2018-03-20T00:09:43.079Z,60.15
2018-03-20T00:12:11.456Z,60.36
2018-03-20T00:14:39.098Z,60.52
2018-03-20T00:17:06.725Z,60.25
2018-03-20T00:19:35.109Z,60.60
2018-03-20T00:22:02.695Z,60.08
2018-03-20T00:24:30.802Z,60.03
2018-03-20T00:26:58.462Z,60.00
2018-03-20T00:29:26.012Z,60.13
2018-03-20T00:31:53.643Z,60.09
2018-03-20T00:34:21.309Z,59.52
2018-03-20T00:36:49.539Z,60.03
2018-03-20T00:39:17.862Z,60.03
2018-03-20T00:41:45.428Z,60.52
2018-03-20T00:44:12.973Z,60.49
2018-03-20T00:46:40.589Z,60.25
2018-03-20T00:49:08.327Z,60.05
2018-03-20T00:51:36.544Z,60.20
2018-03-20T00:54:04.109Z,60.58
2018-03-20T00:56:33.006Z,60.36
2018-03-20T00:59:01.664Z,60.44
2018-03-20T01:01:30.633Z,60.33
2018-03-20T01:03:58.222Z,60.23
2018-03-20T01:06:25.837Z,60.44
2018-03-20T01:08:53.542Z,60.29
2018-03-20T01:11:21.774Z,60.17
2018-03-20T01:13:50.149Z,60.43
2018-03-20T01:16:17.790Z,60.00
2018-03-20T01:18:46.232Z,60.27
2018-03-20T01:21:14.512Z,60.16
2018-03-20T01:23:42.308Z,60.11
2018-03-20T01:26:09.909Z,60.21
2018-03-20T01:28:37.598Z,60.28
2018-03-20T01:31:05.262Z,60.53
2018-03-20T01:33:32.871Z,60.42
2018-03-20T01:36:00.762Z,60.66
2018-03-20T01:38:29.021Z,60.48
2018-03-20T01:40:56.666Z,60.75
2018-03-20T01:43:24.241Z,60.64
2018-03-20T01:45:51.847Z,60.55
2018-03-20T01:48:19.558Z,60.76
2018-03-20T01:50:48.294Z,60.78
2018-03-20T01:53:19.798Z,60.86
2018-03-20T01:55:48.302Z,61.08
2018-03-20T01:58:16.096Z,61.10
2018-03-20T02:00:44.445Z,61.21
2018-03-20T02:03:12.232Z,61.04
2018-03-20T02:05:39.922Z,61.38
2018-03-20T02:08:07.564Z,61.42
2018-03-20T02:10:35.220Z,61.44
2018-03-20T02:13:03.447Z,61.33
2018-03-20T02:15:31.196Z,61.47
2018-03-20T02:17:59.416Z,61.37
2018-03-20T02:20:27.972Z,61.52
2018-03-20T02:22:55.672Z,61.63
2018-03-20T02:25:23.343Z,61.66
2018-03-20T02:27:51.155Z,61.76
2018-03-20T02:30:18.975Z,61.70
2018-03-20T02:32:46.583Z,62.13
2018-03-20T02:35:14.722Z,62.43
2018-03-20T02:37:42.939Z,62.17
2018-03-20T02:40:10.593Z,62.40
2018-03-20T02:42:38.484Z,62.21
2018-03-20T02:45:06.582Z,62.74
2018-03-20T02:47:34.340Z,63.14
2018-03-20T02:50:02.653Z,62.77
2018-03-20T02:52:32.276Z,62.96
2018-03-20T02:55:00.894Z,62.95
2018-03-20T02:57:28.536Z,62.83
2018-03-20T02:59:57.017Z,63.11
2018-03-20T03:02:29.008Z,63.35
2018-03-20T03:04:56.742Z,63.58
2018-03-20T03:07:26.299Z,63.62
2018-03-20T03:09:53.926Z,63.39
2018-03-20T03:12:22.467Z,63.60
2018-03-20T03:14:50.187Z,63.57
2018-03-20T03:17:18.073Z,63.39
2018-03-20T03:19:47.782Z,63.56
2018-03-20T03:22:15.472Z,63.59
2018-03-20T03:24:44.261Z,63.45
2018-03-20T03:27:13.745Z,63.47
2018-03-20T03:29:41.437Z,63.54
2018-03-20T03:32:09.944Z,63.55
2018-03-20T03:34:39.691Z,63.20
2018-03-20T03:37:07.744Z,63.35
2018-03-20T03:39:35.726Z,63.45
2018-03-20T03:42:03.627Z,63.50
2018-03-20T03:44:32.109Z,63.44
2018-03-20T03:47:00.663Z,63.62
2018-03-20T03:49:28.411Z,63.44
2018-03-20T03:51:56.666Z,63.55
2018-03-20T03:54:24.328Z,63.54
2018-03-20T03:56:52.054Z,63.45
2018-03-20T03:59:20.454Z,63.57
2018-03-20T04:01:48.876Z,63.85
2018-03-20T04:04:16.692Z,63.99
2018-03-20T04:06:45.073Z,63.78
2018-03-20T04:09:12.732Z,63.50
2018-03-20T04:11:41.371Z,63.61
2018-03-20T04:14:09.205Z,63.85
2018-03-20T04:16:36.914Z,63.95
2018-03-20T04:19:05.224Z,63.82
2018-03-20T04:21:33.007Z,63.90
2018-03-20T04:24:00.923Z,63.91
2018-03-20T04:26:28.731Z,63.75
2018-03-20T04:28:56.383Z,63.80
2018-03-20T04:31:24.966Z,64.02
2018-03-20T04:33:52.657Z,64.09
2018-03-20T04:36:20.312Z,63.84
2018-03-20T04:38:48.061Z,63.89
2018-03-20T04:41:15.745Z,63.79
2018-03-20T04:43:43.554Z,63.76
2018-03-20T04:46:11.750Z,63.76
2018-03-20T04:48:39.542Z,63.71
2018-03-20T04:51:07.998Z,63.74
2018-03-20T04:53:35.675Z,63.84
2018-03-20T04:56:03.352Z,64.04
2018-03-20T04:58:31.850Z,64.04
2018-03-20T05:01:00.424Z,64.07
2018-03-20T05:03:28.055Z,64.15
2018-03-20T05:05:55.801Z,64.25
2018-03-20T05:08:24.263Z,64.23
2018-03-20T05:10:52.606Z,64.27
2018-03-20T05:13:20.448Z,64.31
2018-03-20T05:15:48.216Z,64.14
2018-03-20T05:18:16.843Z,64.08
2018-03-20T05:23:52.335Z,63.84
2018-03-20T05:26:20.029Z,63.93
2018-03-20T05:28:48.306Z,63.88
2018-03-20T05:31:16.213Z,63.93
2018-03-20T05:33:44.217Z,63.87
2018-03-20T05:36:12.215Z,63.73
2018-03-20T05:38:39.925Z,63.69
2018-03-20T05:41:11.278Z,63.56
2018-03-20T05:43:39.158Z,63.46
2018-03-20T05:46:08.229Z,63.35
2018-03-20T05:51:42.032Z,63.14
2018-03-20T05:54:10.088Z,62.79
2018-03-20T05:56:38.241Z,62.66
2018-03-20T05:59:06.534Z,62.57
2018-03-20T06:01:34.835Z,62.23
2018-03-20T06:04:02.675Z,62.10
2018-03-20T06:06:31.165Z,61.86
2018-03-20T06:08:59.528Z,61.65
2018-03-20T06:11:27.324Z,61.74
2018-03-20T06:13:54.953Z,61.35
2018-03-20T06:16:22.612Z,60.93
2018-03-20T06:18:50.651Z,60.74
2018-03-20T06:21:18.390Z,60.63
2018-03-20T06:23:46.084Z,60.28
2018-03-20T06:26:14.189Z,60.03
2018-03-20T06:28:41.785Z,59.91
2018-03-20T06:31:09.517Z,59.78
2018-03-20T06:33:37.177Z,59.48
2018-03-20T06:36:05.192Z,59.65
2018-03-20T06:38:32.788Z,59.03
2018-03-20T06:41:00.521Z,59.16
2018-03-20T06:43:28.133Z,58.87
2018-03-20T06:45:56.583Z,58.52
2018-03-20T06:48:24.176Z,58.57
2018-03-20T06:50:52.634Z,58.46
2018-03-20T06:53:20.281Z,58.24
2018-03-20T06:55:47.913Z,58.33
2018-03-20T06:58:15.571Z,58.12
2018-03-20T07:00:43.703Z,57.71
2018-03-20T07:03:11.332Z,57.31
2018-03-20T07:05:38.998Z,57.35
2018-03-20T07:08:07.112Z,57.39
2018-03-20T07:10:34.763Z,56.83
2018-03-20T07:13:03.062Z,57.04
2018-03-20T07:15:30.699Z,57.06
2018-03-20T07:18:00.346Z,56.64
2018-03-20T07:20:27.982Z,56.70
2018-03-20T07:22:56.105Z,56.78
2018-03-20T07:25:23.727Z,56.63
2018-03-20T07:27:51.307Z,55.90
2018-03-20T07:30:18.897Z,55.90
2018-03-20T07:32:46.458Z,55.86
2018-03-20T07:35:14.153Z,55.65
2018-03-20T07:37:41.756Z,55.27
2018-03-20T07:40:09.428Z,54.88
2018-03-20T07:42:37.017Z,54.93
2018-03-20T07:45:05.310Z,54.77
2018-03-20T07:47:32.897Z,53.79
2018-03-20T07:50:00.905Z,53.86
2018-03-20T07:52:28.991Z,53.22
2018-03-20T07:54:56.550Z,53.66
2018-03-20T07:57:24.100Z,53.81
2018-03-20T07:59:52.202Z,53.18
2018-03-20T08:02:19.845Z,52.55
2018-03-20T08:04:47.397Z,52.64
2018-03-20T08:07:15.419Z,52.43
2018-03-20T08:09:42.946Z,52.28
2018-03-20T08:12:10.509Z,52.01
2018-03-20T08:14:38.169Z,51.58
2018-03-20T08:17:05.756Z,51.30
2018-03-20T08:19:34.126Z,50.82
2018-03-20T08:22:02.407Z,50.90
2018-03-20T08:24:30.176Z,50.86
2018-03-20T08:26:57.713Z,50.65
2018-03-20T08:29:25.273Z,50.47
2018-03-20T08:31:52.802Z,50.53
2018-03-20T08:34:20.339Z,49.98
2018-03-20T08:36:47.905Z,48.08
2018-03-20T08:39:15.435Z,48.77
2018-03-20T08:41:42.977Z,48.04
2018-03-20T08:44:11.189Z,48.92
2018-03-20T08:46:38.714Z,48.32
2018-03-20T08:49:06.261Z,48.23
2018-03-20T08:51:34.448Z,47.85
2018-03-20T08:54:01.987Z,47.23
2018-03-20T08:56:29.524Z,47.33
2018-03-20T08:58:57.623Z,47.26
2018-03-20T09:01:25.908Z,46.76
2018-03-20T09:03:53.466Z,47.14
2018-03-20T09:06:21.018Z,47.33
2018-03-20T09:08:49.160Z,47.03
2018-03-20T09:11:16.755Z,47.09
2018-03-20T09:13:44.305Z,47.05
2018-03-20T09:16:11.900Z,47.41
2018-03-20T09:18:40.068Z,47.33
2018-03-20T09:21:07.642Z,46.50
2018-03-20T09:23:35.207Z,47.32
2018-03-20T09:26:02.767Z,47.30
2018-03-20T09:28:30.620Z,48.30
2018-03-20T09:30:58.246Z,48.07
2018-03-20T09:33:25.829Z,47.75
2018-03-20T09:35:53.670Z,47.25
2018-03-20T09:38:21.233Z,46.99
2018-03-20T09:40:48.805Z,47.30
2018-03-20T09:43:16.706Z,46.96
2018-03-20T09:45:44.783Z,46.25
2018-03-20T09:48:12.369Z,47.32
2018-03-20T09:50:40.603Z,46.61
2018-03-20T09:53:09.286Z,45.79
2018-03-20T09:55:36.835Z,44.81
2018-03-20T09:58:04.381Z,45.94
2018-03-20T10:00:32.513Z,46.37
2018-03-20T10:03:00.192Z,46.04
2018-03-20T10:05:28.817Z,44.99
2018-03-20T10:07:57.259Z,44.25
2018-03-20T10:10:24.818Z,43.97
2018-03-20T10:12:52.402Z,44.71
2018-03-20T10:15:20.895Z,44.57
2018-03-20T10:17:49.094Z,44.68
2018-03-20T10:20:16.700Z,44.80
2018-03-20T10:22:44.233Z,44.15
2018-03-20T10:25:11.853Z,43.96
2018-03-20T10:27:39.483Z,44.07
2018-03-20T10:30:07.080Z,44.44
2018-03-20T10:32:34.647Z,44.41
2018-03-20T10:35:02.212Z,44.11
2018-03-20T10:37:29.876Z,44.09
2018-03-20T10:39:57.446Z,43.24
2018-03-20T10:42:25.024Z,43.83
2018-03-20T10:44:53.755Z,42.77
2018-03-20T10:47:21.293Z,42.41
2018-03-20T10:49:48.829Z,42.71
2018-03-20T10:52:16.741Z,42.99
2018-03-20T10:54:44.279Z,41.70
2018-03-20T10:57:11.805Z,42.30
2018-03-20T10:59:39.957Z,42.46
2018-03-20T11:02:12.989Z,42.17
2018-03-20T11:04:40.579Z,40.71
2018-03-20T11:07:09.057Z,40.42
2018-03-20T11:09:36.663Z,40.78
2018-03-20T11:12:04.201Z,41.12
2018-03-20T11:14:32.401Z,40.70
2018-03-20T11:17:00.343Z,40.68
2018-03-20T11:19:28.614Z,39.90
2018-03-20T11:21:56.221Z,39.11
2018-03-20T11:24:23.748Z,39.82
2018-03-20T11:26:51.327Z,38.68
2018-03-20T11:29:18.878Z,38.61
2018-03-20T11:31:46.412Z,38.75
2018-03-20T11:34:14.364Z,39.57
2018-03-20T11:36:41.904Z,38.10
2018-03-20T11:39:09.531Z,38.30
2018-03-20T11:41:37.110Z,38.57
2018-03-20T11:44:04.746Z,39.79
2018-03-20T11:46:32.798Z,40.51
2018-03-20T11:49:00.479Z,40.85
2018-03-20T11:51:28.769Z,39.73
2018-03-20T11:53:56.301Z,38.65
2018-03-20T11:56:23.834Z,38.82
2018-03-20T11:58:51.864Z,38.50
2018-03-20T12:01:20.058Z,37.48
2018-03-20T12:03:47.619Z,38.02
2018-03-20T12:06:15.158Z,36.71
2018-03-20T12:08:51.385Z,37.33
2018-03-20T12:11:19.627Z,37.65
2018-03-20T12:13:47.189Z,38.05
2018-03-20T12:16:14.756Z,37.18
2018-03-20T12:18:43.032Z,37.57
2018-03-20T12:21:10.563Z,36.84
2018-03-20T12:23:38.145Z,36.31
2018-03-20T12:26:05.765Z,36.15
2018-03-20T12:28:33.289Z,36.19
2018-03-20T12:31:00.994Z,35.95
2018-03-20T12:33:28.558Z,36.08
2018-03-20T12:35:56.150Z,35.74
2018-03-20T12:38:23.673Z,36.20
2018-03-20T12:40:51.248Z,36.46
2018-03-20T12:43:18.952Z,37.20
2018-03-20T12:45:47.463Z,37.21
2018-03-20T12:48:14.992Z,37.51
2018-03-20T12:50:43.186Z,37.41
2018-03-20T12:53:11.314Z,36.79
2018-03-20T12:55:38.905Z,37.09
2018-03-20T12:58:06.478Z,35.65
2018-03-20T13:00:34.896Z,35.61
2018-03-20T13:03:02.452Z,36.29
2018-03-20T13:05:30.034Z,36.22
2018-03-20T13:07:58.253Z,35.10
2018-03-20T13:10:26.381Z,34.93
2018-03-20T13:12:53.927Z,34.39
2018-03-20T13:15:21.474Z,33.83
2018-03-20T13:17:49.776Z,32.79
2018-03-20T13:20:17.321Z,34.50
2018-03-20T13:22:44.842Z,33.84
2018-03-20T13:25:12.406Z,33.99
2018-03-20T13:27:39.998Z,32.79
2018-03-20T13:30:07.541Z,33.95
2018-03-20T13:32:35.082Z,34.28
2018-03-20T13:35:02.622Z,34.15
2018-03-20T13:37:31.047Z,34.49
2018-03-20T13:39:58.572Z,34.43
2018-03-20T13:42:26.122Z,34.04
2018-03-20T13:44:54.148Z,33.83
2018-03-20T13:47:21.667Z,33.68
2018-03-20T13:49:49.202Z,33.60
2018-03-20T13:52:17.434Z,34.34
2018-03-20T13:54:44.985Z,33.63
2018-03-20T13:57:12.554Z,34.28
2018-03-20T13:59:40.880Z,33.02
2018-03-20T14:02:08.501Z,33.14
2018-03-20T14:04:36.045Z,34.04
2018-03-20T14:07:04.497Z,33.89
2018-03-20T14:09:32.035Z,34.59
2018-03-20T14:11:59.575Z,34.16
2018-03-20T14:14:27.182Z,33.48
2018-03-20T14:16:54.723Z,34.33
2018-03-20T14:19:23.021Z,34.78
2018-03-20T14:21:50.546Z,35.56
2018-03-20T14:24:18.085Z,34.62
2018-03-20T14:26:45.646Z,34.69
2018-03-20T14:29:13.186Z,34.14
2018-03-20T14:31:40.724Z,34.84
2018-03-20T14:34:08.400Z,34.08
2018-03-20T14:36:35.949Z,34.36
2018-03-20T14:39:03.652Z,34.09
2018-03-20T14:41:31.459Z,32.68
2018-03-20T14:43:59.167Z,32.53
2018-03-20T14:46:27.500Z,32.88
2018-03-20T14:48:55.102Z,32.56
2018-03-20T14:51:23.264Z,33.12
2018-03-20T14:53:50.795Z,33.03
2018-03-20T14:56:18.399Z,32.43
2018-03-20T14:58:46.572Z,32.71
2018-03-20T15:01:14.699Z,32.99
2018-03-20T15:03:42.573Z,33.34
2018-03-20T15:06:10.114Z,32.47
2018-03-20T15:08:38.529Z,33.07
2018-03-20T15:11:06.064Z,33.28
2018-03-20T15:13:33.597Z,32.83
2018-03-20T15:16:01.398Z,32.55
2018-03-20T15:18:29.876Z,32.41
2018-03-20T15:20:58.028Z,32.05
2018-03-20T15:23:25.556Z,33.14
2018-03-20T15:25:53.148Z,32.82
2018-03-20T15:28:20.701Z,32.91
2018-03-20T15:30:48.232Z,33.16
2018-03-20T15:33:15.773Z,31.98
2018-03-20T15:35:43.366Z,32.78
2018-03-20T15:38:10.908Z,32.27
2018-03-20T15:40:38.473Z,32.66
2018-03-20T15:43:06.051Z,32.69
2018-03-20T15:45:34.989Z,33.93
2018-03-20T15:48:02.571Z,33.49
2018-03-20T15:50:31.391Z,34.46
2018-03-20T15:52:59.565Z,34.88
2018-03-20T15:55:27.122Z,34.28
2018-03-20T15:57:54.659Z,34.29
2018-03-20T16:00:22.837Z,33.02
2018-03-20T16:02:50.941Z,33.88
2018-03-20T16:05:18.503Z,33.38
2018-03-20T16:07:46.691Z,33.94
2018-03-20T16:10:14.224Z,33.37
2018-03-20T16:12:41.753Z,33.68
2018-03-20T16:15:09.516Z,32.99
2018-03-20T16:17:38.010Z,33.41
2018-03-20T16:20:05.545Z,33.40
2018-03-20T16:22:33.070Z,33.82
2018-03-20T16:25:00.695Z,34.10
2018-03-20T16:27:28.696Z,33.59
2018-03-20T16:29:56.231Z,33.71
2018-03-20T16:32:23.773Z,33.49
2018-03-20T16:34:51.341Z,35.63
2018-03-20T16:37:18.877Z,35.73
2018-03-20T16:39:46.438Z,34.93
2018-03-20T16:42:14.053Z,36.87
2018-03-20T16:44:42.061Z,36.44
2018-03-20T16:47:09.594Z,35.35
2018-03-20T16:49:37.136Z,36.67
2018-03-20T16:52:05.247Z,36.61
2018-03-20T16:54:32.780Z,36.01
2018-03-20T16:57:00.396Z,36.79
2018-03-20T16:59:28.502Z,36.87
2018-03-20T17:01:56.835Z,37.72
2018-03-20T17:04:24.387Z,37.99
2018-03-20T17:06:52.416Z,37.67
2018-03-20T17:09:19.960Z,38.44
2018-03-20T17:11:47.539Z,39.24
2018-03-20T17:14:15.208Z,39.34
2018-03-20T17:16:42.747Z,39.56
2018-03-20T17:19:11.166Z,40.00
2018-03-20T17:21:38.702Z,39.88
2018-03-20T17:24:06.312Z,40.40
2018-03-20T17:26:34.485Z,40.89
2018-03-20T17:29:02.086Z,40.85
2018-03-20T17:31:29.704Z,42.42
2018-03-20T17:33:57.369Z,42.85
2018-03-20T17:36:24.978Z,43.71
2018-03-20T17:38:52.595Z,43.16
2018-03-20T17:41:20.251Z,43.65
2018-03-20T17:43:47.822Z,43.04
2018-03-20T17:46:16.127Z,44.17
2018-03-20T17:48:43.747Z,44.16
2018-03-20T17:51:11.999Z,44.30
2018-03-20T17:53:39.591Z,45.49
2018-03-20T17:56:07.170Z,45.60
2018-03-20T17:58:35.835Z,44.73
2018-03-20T18:01:04.206Z,44.55
2018-03-20T18:03:32.639Z,44.40
2018-03-20T18:06:00.347Z,44.66
2018-03-20T18:08:28.599Z,45.30
2018-03-20T18:10:56.182Z,45.93
2018-03-20T18:13:23.815Z,46.11
2018-03-20T18:15:51.407Z,46.21
2018-03-20T18:18:19.770Z,46.17
2018-03-20T18:20:47.341Z,46.56
2018-03-20T18:23:14.885Z,46.49
2018-03-20T18:25:42.489Z,46.97
2018-03-20T18:28:10.796Z,47.38
2018-03-20T18:30:38.395Z,47.83
2018-03-20T18:33:05.967Z,47.93
2018-03-20T18:35:33.526Z,48.32
2018-03-20T18:38:01.874Z,48.54
2018-03-20T18:40:29.485Z,48.65
2018-03-20T18:42:57.070Z,49.02
2018-03-20T18:45:25.525Z,49.09
2018-03-20T18:47:53.083Z,49.80
2018-03-20T18:50:21.355Z,50.15
2018-03-20T18:52:49.523Z,50.27
2018-03-20T18:55:17.834Z,50.41
2018-03-20T18:57:45.468Z,50.56
2018-03-20T19:00:13.605Z,50.73
2018-03-20T19:02:41.208Z,50.99
2018-03-20T19:05:08.940Z,50.95
2018-03-20T19:07:37.343Z,51.35
2018-03-20T19:10:05.066Z,51.75
2018-03-20T19:12:32.671Z,52.01
2018-03-20T19:15:00.769Z,52.30
2018-03-20T19:17:28.382Z,52.25
2018-03-20T19:19:56.630Z,52.50
2018-03-20T19:22:24.212Z,52.27
2018-03-20T19:24:51.800Z,52.43
2018-03-20T19:27:20.396Z,52.60
2018-03-20T19:29:48.014Z,52.68
2018-03-20T19:32:15.734Z,52.77
2018-03-20T19:34:43.645Z,52.82
2018-03-20T19:37:11.231Z,52.99
2018-03-20T19:39:39.870Z,52.94
2018-03-20T19:42:07.461Z,53.21
2018-03-20T19:44:37.109Z,53.35
2018-03-20T19:47:04.730Z,53.52
2018-03-20T19:49:33.257Z,53.69
2018-03-20T19:52:02.965Z,53.90
2018-03-20T19:54:30.685Z,54.25
2018-03-20T19:56:58.345Z,54.43
2018-03-20T19:59:26.285Z,54.48
2018-03-20T20:01:54.558Z,54.51
2018-03-20T20:04:22.296Z,54.64
2018-03-20T20:06:50.685Z,54.79
2018-03-20T20:09:18.300Z,55.03
2018-03-20T20:11:45.955Z,55.35
2018-03-20T20:14:13.573Z,55.56
2018-03-20T20:16:41.117Z,55.69
2018-03-20T20:19:09.496Z,55.85
2018-03-20T20:21:37.251Z,55.87
2018-03-20T20:24:04.900Z,56.03
2018-03-20T20:26:32.770Z,56.44
2018-03-20T20:29:01.160Z,56.62
2018-03-20T20:31:28.754Z,56.67
2018-03-20T20:33:56.419Z,56.77
2018-03-20T20:36:24.822Z,56.89
2018-03-20T20:38:53.075Z,56.95
2018-03-20T20:41:20.704Z,57.12
2018-03-20T20:43:48.417Z,57.12
2018-03-20T20:46:17.385Z,57.26
2018-03-20T20:48:45.018Z,57.48
2018-03-20T20:51:13.375Z,57.65
2018-03-20T20:53:40.940Z,57.87
2018-03-20T20:56:08.757Z,58.11
2018-03-20T20:58:37.126Z,58.13
2018-03-20T21:01:05.482Z,58.33
2018-03-20T21:03:33.121Z,58.54
2018-03-20T21:06:00.883Z,59.00
2018-03-20T21:08:28.974Z,59.06
2018-03-20T21:10:56.639Z,59.31
2018-03-20T21:13:24.292Z,59.33
2018-03-20T21:15:51.936Z,59.81
2018-03-20T21:18:21.262Z,60.00
2018-03-20T21:20:48.901Z,60.15
2018-03-20T21:23:16.495Z,60.44
2018-03-20T21:25:44.150Z,60.54
2018-03-20T21:28:12.491Z,60.58
2018-03-20T21:30:40.114Z,60.45
2018-03-20T21:33:08.346Z,60.54
2018-03-20T21:35:36.072Z,60.45
2018-03-20T21:38:04.447Z,60.80
2018-03-20T21:40:32.237Z,60.74
2018-03-20T21:43:00.472Z,60.93
2018-03-20T21:45:28.682Z,61.24
2018-03-20T21:47:57.030Z,61.14
2018-03-20T21:50:25.295Z,61.43
2018-03-20T21:52:53.665Z,61.41
2018-03-20T21:55:21.308Z,61.46
2018-03-20T21:57:48.971Z,61.62
2018-03-20T22:00:16.948Z,61.86
2018-03-20T22:02:44.630Z,61.93
2018-03-20T22:05:12.244Z,61.96
2018-03-20T22:07:40.273Z,61.80
2018-03-20T22:10:08.075Z,61.80
2018-03-20T22:12:35.738Z,61.83
2018-03-20T22:15:03.452Z,61.75
2018-03-20T22:17:32.193Z,61.79
2018-03-20T22:20:00.571Z,62.09
2018-03-20T22:22:29.022Z,62.13
2018-03-20T22:24:57.034Z,62.44
2018-03-20T22:27:25.248Z,62.30
2018-03-20T22:29:53.069Z,62.45
2018-03-20T22:32:20.709Z,62.72
2018-03-20T22:34:48.417Z,62.75
2018-03-20T22:37:16.067Z,62.83
2018-03-20T22:39:43.655Z,62.90
2018-03-20T22:42:11.557Z,62.99
2018-03-20T22:44:39.898Z,62.95
2018-03-20T22:47:07.516Z,62.94
2018-03-20T22:49:35.215Z,63.22
2018-03-20T22:52:03.439Z,63.30
2018-03-20T22:54:31.124Z,63.35
2018-03-20T22:56:58.882Z,63.04
2018-03-20T22:59:27.660Z,63.17
2018-03-20T23:01:55.969Z,63.18
2018-03-20T23:04:23.552Z,63.24
2018-03-20T23:06:51.983Z,63.17
2018-03-20T23:09:19.613Z,63.29
2018-03-20T23:11:47.205Z,63.47
2018-03-20T23:14:14.800Z,63.47
2018-03-20T23:16:42.361Z,63.52
2018-03-20T23:19:10.349Z,63.63
2018-03-20T23:21:37.902Z,63.51
2018-03-20T23:24:05.534Z,63.32
2018-03-20T23:26:33.447Z,63.45
2018-03-20T23:29:01.637Z,63.54
2018-03-20T23:31:29.252Z,63.78
2018-03-20T23:33:56.913Z,63.75
2018-03-20T23:36:24.501Z,63.92
2018-03-20T23:38:52.804Z,63.83
2018-03-20T23:41:20.404Z,63.73
2018-03-20T23:43:48.489Z,64.11
2018-03-20T23:46:16.526Z,64.46
2018-03-20T23:48:44.138Z,64.70
2018-03-20T23:51:12.409Z,64.73
2018-03-20T23:53:40.028Z,65.09
2018-03-20T23:56:07.663Z,65.11
2018-03-20T23:58:35.866Z,65.37
